Terminal Aerodrome Forecast
Issued by NWS

Home | Current Version | Previous Version | Text Only | Print | Product List | Glossary On
Versions: 1 2 3 4 5 6 7 8 9 10 11 12 13 14 15 16 17 18 19 20 21 22 23 24 25 26 27 28 29 30 31 32 33 34 35
000
FTUS41 KBOX 291736
TAFBAF
TAF
KBAF 291736Z 2918/3018 23004KT P6SM FEW050 FEW250
     FM300300 00000KT P6SM FEW250
     FM300700 00000KT 4SM BR FEW250
      TEMPO 3007/3011 4SM BR
     FM301200 21004KT P6SM BKN250
     FM301600 21008KT P6SM VCSH BKN050=

USA.gov is the U.S. government's official web portal to all federal, state and local government web resources and services.